createdAt,value
2023-03-06T00:00:15.768Z,737.00
2023-03-06T00:01:15.928Z,736.00
2023-03-06T00:02:15.938Z,736.00
2023-03-06T00:03:16.016Z,739.00
2023-03-06T00:04:16.101Z,738.00
2023-03-06T00:05:16.177Z,738.00
2023-03-06T00:06:16.328Z,737.00
2023-03-06T00:07:16.340Z,732.00
2023-03-06T00:08:16.397Z,733.00
2023-03-06T00:09:16.479Z,734.00
2023-03-06T00:10:16.561Z,733.00
2023-03-06T00:11:16.646Z,736.00
2023-03-06T00:12:16.709Z,737.00
2023-03-06T00:13:16.773Z,733.00
2023-03-06T00:14:16.896Z,735.00
2023-03-06T00:15:16.922Z,738.00
2023-03-06T00:16:17.031Z,738.00
2023-03-06T00:17:17.097Z,736.00
2023-03-06T00:18:17.300Z,736.00
2023-03-06T00:19:17.251Z,733.00
2023-03-06T00:20:17.337Z,731.00
2023-03-06T00:21:17.408Z,732.00
2023-03-06T00:22:17.480Z,750.00
2023-03-06T00:23:17.561Z,747.00
2023-03-06T00:24:17.638Z,745.00
2023-03-06T00:25:17.806Z,740.00
2023-03-06T00:26:17.801Z,738.00
2023-03-06T00:27:17.896Z,739.00
2023-03-06T00:28:18.028Z,738.00
2023-03-06T00:29:18.051Z,737.00
2023-03-06T00:30:18.128Z,739.00
2023-03-06T00:31:18.274Z,737.00
2023-03-06T00:32:18.351Z,738.00
2023-03-06T00:33:18.370Z,743.00
2023-03-06T00:34:18.469Z,742.00
2023-03-06T00:35:18.568Z,741.00
2023-03-06T00:36:18.642Z,738.00
2023-03-06T00:37:18.686Z,737.00
2023-03-06T00:38:18.767Z,736.00
2023-03-06T00:39:18.839Z,739.00
2023-03-06T00:40:19.359Z,738.00
2023-03-06T00:41:19.004Z,738.00
2023-03-06T00:42:19.093Z,739.00
2023-03-06T00:43:19.182Z,737.00
2023-03-06T00:44:19.268Z,740.00
2023-03-06T00:45:19.351Z,739.00
2023-03-06T00:46:19.438Z,737.00
2023-03-06T00:47:19.522Z,738.00
2023-03-06T00:48:19.613Z,742.00
2023-03-06T00:49:19.708Z,740.00
2023-03-06T00:50:19.790Z,740.00
2023-03-06T00:51:19.883Z,737.00
2023-03-06T00:52:19.969Z,733.00
2023-03-06T00:53:20.048Z,733.00
2023-03-06T00:54:20.130Z,732.00
2023-03-06T00:55:20.295Z,732.00
2023-03-06T00:56:20.311Z,733.00
2023-03-06T00:57:20.398Z,733.00
2023-03-06T00:58:20.478Z,733.00
2023-03-06T00:59:20.628Z,734.00
2023-03-06T01:00:20.655Z,739.00
2023-03-06T01:01:20.790Z,735.00
2023-03-06T01:02:20.842Z,732.00
2023-03-06T01:03:20.913Z,736.00
2023-03-06T01:04:21.071Z,734.00
2023-03-06T01:05:21.091Z,731.00
2023-03-06T01:06:21.159Z,732.00
2023-03-06T01:07:21.245Z,729.00
2023-03-06T01:08:21.317Z,732.00
2023-03-06T01:09:21.399Z,731.00
2023-03-06T01:10:21.483Z,730.00
2023-03-06T01:11:21.564Z,731.00
2023-03-06T01:12:23.471Z,734.00
2023-03-06T01:13:21.717Z,733.00
2023-03-06T02:11:25.608Z,715.00
2023-03-06T02:59:27.877Z,719.00
2023-03-06T03:08:27.772Z,707.00
2023-03-06T03:09:27.876Z,709.00
2023-03-06T03:10:27.841Z,716.00
2023-03-06T03:11:27.887Z,718.00
2023-03-06T03:12:27.914Z,719.00
2023-03-06T03:13:27.967Z,715.00
2023-03-06T03:14:28.029Z,713.00
2023-03-06T03:15:28.052Z,715.00
2023-03-06T03:16:28.148Z,716.00
2023-03-06T03:17:28.130Z,713.00
2023-03-06T03:18:28.181Z,711.00
2023-03-06T03:19:28.883Z,712.00
2023-03-06T03:20:28.275Z,714.00
2023-03-06T03:21:28.316Z,715.00
2023-03-06T03:22:28.359Z,713.00
2023-03-06T03:23:28.409Z,714.00
2023-03-06T03:24:28.467Z,714.00
2023-03-06T03:25:28.469Z,715.00
2023-03-06T03:26:28.528Z,716.00
2023-03-06T03:27:28.560Z,717.00
2023-03-06T03:28:28.605Z,721.00
2023-03-06T03:29:28.647Z,719.00
2023-03-06T03:30:28.702Z,724.00
2023-03-06T03:31:28.866Z,723.00
2023-03-06T03:32:28.818Z,728.00
2023-03-06T03:33:28.827Z,725.00
2023-03-06T03:34:28.874Z,722.00
2023-03-06T03:35:28.938Z,721.00
2023-03-06T03:36:28.963Z,719.00
2023-03-06T03:37:29.009Z,716.00
2023-03-06T03:38:29.046Z,716.00
2023-03-06T03:39:29.092Z,714.00
2023-03-06T03:40:29.136Z,715.00
2023-03-06T03:41:29.177Z,715.00
2023-03-06T03:42:29.239Z,714.00
2023-03-06T03:43:29.399Z,719.00
2023-03-06T03:44:29.895Z,715.00
2023-03-06T03:45:29.368Z,715.00
2023-03-06T03:46:29.495Z,716.00
2023-03-06T03:47:29.467Z,714.00
2023-03-06T03:48:29.511Z,714.00
2023-03-06T03:49:29.564Z,716.00
2023-03-06T03:50:29.607Z,721.00
2023-03-06T03:51:29.654Z,723.00
2023-03-06T03:52:29.706Z,726.00
2023-03-06T03:53:29.748Z,725.00
2023-03-06T03:54:29.846Z,721.00
2023-03-06T03:55:29.889Z,717.00
2023-03-06T03:56:30.394Z,716.00
2023-03-06T03:57:29.947Z,714.00
2023-03-06T03:58:29.983Z,715.00
2023-03-06T03:59:30.024Z,715.00
2023-03-06T04:00:30.073Z,716.00
2023-03-06T04:01:30.109Z,716.00
2023-03-06T04:02:30.149Z,715.00
2023-03-06T04:03:30.208Z,712.00
2023-03-06T04:04:30.272Z,712.00
2023-03-06T04:05:30.302Z,709.00
2023-03-06T04:06:30.338Z,700.00
2023-03-06T04:07:30.387Z,703.00
2023-03-06T04:08:30.431Z,709.00
2023-03-06T04:09:30.466Z,710.00
2023-03-06T04:10:30.514Z,711.00
2023-03-06T04:11:30.567Z,711.00
2023-03-06T04:12:30.614Z,710.00
2023-03-06T04:13:30.660Z,715.00
2023-03-06T04:14:30.698Z,712.00
2023-03-06T04:15:30.733Z,714.00
2023-03-06T04:16:30.818Z,711.00
2023-03-06T04:17:30.821Z,710.00
2023-03-06T04:18:30.968Z,710.00
2023-03-06T04:19:30.974Z,710.00
2023-03-06T04:20:30.965Z,708.00
2023-03-06T06:47:38.055Z,1469.00
2023-03-06T07:09:37.749Z,2103.00
2023-03-06T07:10:37.756Z,2154.00
2023-03-06T07:11:37.730Z,2163.00
2023-03-06T07:12:37.727Z,2179.00
2023-03-06T07:13:37.723Z,2233.00
2023-03-06T07:14:37.726Z,2265.00
2023-03-06T07:15:38.804Z,2273.00
2023-03-06T07:16:37.743Z,2325.00
2023-03-06T07:17:38.690Z,2350.00
2023-03-06T07:18:37.957Z,2377.00
2023-03-06T07:19:38.669Z,2418.00
2023-03-06T07:20:37.658Z,2541.00
2023-03-06T07:21:37.664Z,2562.00
2023-03-06T07:22:50.210Z,2551.00
2023-03-06T07:23:39.450Z,2540.00
2023-03-06T07:24:37.642Z,2512.00
2023-03-06T07:26:37.647Z,2491.00
2023-03-06T07:27:37.674Z,2496.00
2023-03-06T07:28:51.226Z,2498.00
2023-03-06T07:29:38.665Z,2511.00
2023-03-06T07:30:37.635Z,2519.00
2023-03-06T07:31:38.671Z,2516.00
2023-03-06T07:32:37.674Z,2507.00
2023-03-06T07:33:38.451Z,2502.00
2023-03-06T07:35:37.685Z,2489.00
2023-03-06T07:36:37.629Z,2486.00
2023-03-06T07:37:37.635Z,2496.00
2023-03-06T07:39:37.964Z,2496.00
2023-03-06T07:40:37.634Z,2487.00
2023-03-06T07:41:37.661Z,2479.00
2023-03-06T07:42:37.732Z,2478.00
2023-03-06T07:43:37.815Z,2477.00
2023-03-06T07:44:37.896Z,2479.00
2023-03-06T07:45:37.946Z,2477.00
2023-03-06T07:46:38.971Z,2474.00
2023-03-06T07:47:38.120Z,2475.00
2023-03-06T07:48:38.127Z,2479.00
2023-03-06T07:49:38.211Z,2476.00
2023-03-06T07:50:38.245Z,2468.00
2023-03-06T07:51:38.310Z,2470.00
2023-03-06T07:52:38.334Z,2470.00
2023-03-06T07:53:38.902Z,2470.00
2023-03-06T07:54:38.502Z,2464.00
2023-03-06T07:55:38.436Z,2461.00
2023-03-06T07:56:38.451Z,2456.00
2023-03-06T07:57:38.471Z,2452.00
2023-03-06T07:58:38.469Z,2458.00
2023-03-06T07:59:38.529Z,2448.00
2023-03-06T08:00:38.549Z,2444.00
2023-03-06T08:01:38.570Z,2449.00
2023-03-06T08:02:38.616Z,2447.00
2023-03-06T08:03:38.631Z,2444.00
2023-03-06T08:04:38.592Z,2447.00
2023-03-06T08:05:39.470Z,2446.00
2023-03-06T08:06:38.639Z,2442.00
2023-03-06T08:07:38.675Z,2441.00
2023-03-06T08:08:38.678Z,2439.00
2023-03-06T08:09:38.713Z,2432.00
2023-03-06T08:10:38.786Z,2433.00
2023-03-06T08:11:38.980Z,2431.00
2023-03-06T08:12:38.855Z,2431.00
2023-03-06T08:13:38.903Z,2428.00
2023-03-06T08:14:38.990Z,2422.00
2023-03-06T08:15:39.003Z,2420.00
2023-03-06T08:16:39.509Z,2415.00
2023-03-06T08:17:39.027Z,2416.00
2023-03-06T08:18:39.039Z,2398.00
2023-03-06T08:19:39.031Z,2422.00
2023-03-06T08:20:39.063Z,2430.00
2023-03-06T08:21:39.100Z,2414.00
2023-03-06T08:22:39.979Z,2372.00
2023-03-06T08:23:39.189Z,2363.00
2023-03-06T08:24:39.178Z,2367.00
2023-03-06T08:25:39.219Z,2383.00
2023-03-06T08:26:39.244Z,2390.00
2023-03-06T08:27:39.353Z,2391.00
2023-03-06T08:28:39.372Z,2390.00
2023-03-06T08:29:39.345Z,2379.00
2023-03-06T08:30:39.426Z,2374.00
2023-03-06T08:31:39.534Z,2370.00
2023-03-06T08:32:39.648Z,2370.00
2023-03-06T08:33:39.595Z,2366.00
2023-03-06T08:34:39.626Z,2363.00
2023-03-06T08:35:39.710Z,2356.00
2023-03-06T08:36:39.761Z,2356.00
2023-03-06T08:37:39.859Z,2358.00
2023-03-06T08:38:39.909Z,2360.00
2023-03-06T08:39:39.909Z,2362.00
2023-03-06T08:40:41.047Z,2359.00
2023-03-06T08:41:40.058Z,2362.00
2023-03-06T08:42:40.134Z,2362.00
2023-03-06T08:43:40.192Z,2363.00
2023-03-06T08:44:40.250Z,2363.00
2023-03-06T08:45:40.416Z,2365.00
2023-03-06T08:46:40.409Z,2361.00
2023-03-06T08:47:40.467Z,2358.00
2023-03-06T08:48:40.975Z,2353.00
2023-03-06T08:49:40.605Z,2343.00
2023-03-06T08:50:40.667Z,2347.00
2023-03-06T08:51:40.750Z,2347.00
2023-03-06T08:52:40.813Z,2337.00
2023-03-06T08:53:43.401Z,2340.00
2023-03-06T08:54:40.865Z,2342.00
2023-03-06T08:55:40.921Z,2342.00
2023-03-06T08:56:40.868Z,2334.00
2023-03-06T08:57:40.869Z,2326.00
2023-03-06T08:58:40.880Z,2318.00
2023-03-06T08:59:40.890Z,2319.00
2023-03-06T09:00:40.956Z,2315.00
2023-03-06T09:01:40.960Z,2315.00
2023-03-06T09:02:40.946Z,2321.00
2023-03-06T09:03:40.925Z,2314.00
2023-03-06T09:04:40.951Z,2307.00
2023-03-06T09:05:40.928Z,2307.00
2023-03-06T09:06:40.923Z,2308.00
2023-03-06T09:07:40.927Z,2308.00
2023-03-06T09:08:40.923Z,2308.00
2023-03-06T09:09:40.920Z,2307.00
2023-03-06T09:10:40.974Z,2306.00
2023-03-06T09:11:40.933Z,2296.00
2023-03-06T09:12:50.138Z,2289.00
2023-03-06T09:13:42.004Z,2288.00
2023-03-06T09:14:41.052Z,2286.00
2023-03-06T09:15:41.118Z,2286.00
2023-03-06T09:16:41.217Z,2285.00
2023-03-06T09:17:41.357Z,2281.00
2023-03-06T09:18:41.340Z,2287.00
2023-03-06T09:19:41.340Z,2285.00
2023-03-06T09:20:41.497Z,2291.00
2023-03-06T09:21:41.466Z,2288.00
2023-03-06T09:22:41.518Z,2297.00
2023-03-06T09:23:41.581Z,2301.00
2023-03-06T09:24:41.622Z,2303.00
2023-03-06T09:25:41.683Z,2300.00
2023-03-06T09:26:46.444Z,2304.00
2023-03-06T09:27:42.728Z,2299.00
2023-03-06T09:28:41.721Z,2301.00
2023-03-06T09:29:41.719Z,2298.00
2023-03-06T09:30:41.762Z,2291.00
2023-03-06T09:31:41.735Z,2287.00
2023-03-06T09:32:41.873Z,2285.00
2023-03-06T09:33:41.736Z,2290.00
2023-03-06T09:34:41.757Z,2293.00
2023-03-06T09:35:41.813Z,2286.00
2023-03-06T09:36:55.320Z,2279.00
2023-03-06T09:37:43.991Z,2280.00
2023-03-06T09:38:42.079Z,2284.00
2023-03-06T09:39:42.137Z,2284.00
2023-03-06T09:40:42.197Z,2278.00
2023-03-06T09:41:42.267Z,2270.00
2023-03-06T09:42:42.326Z,2272.00
2023-03-06T09:43:42.387Z,2272.00
2023-03-06T09:44:42.456Z,2271.00
2023-03-06T09:45:42.620Z,2271.00
2023-03-06T09:46:42.563Z,2265.00
2023-03-06T09:47:42.630Z,2264.00
2023-03-06T09:48:42.700Z,2261.00
2023-03-06T09:49:42.757Z,2253.00
2023-03-06T09:50:42.811Z,2245.00
2023-03-06T09:51:42.900Z,2252.00
2023-03-06T09:52:42.959Z,2255.00
2023-03-06T09:53:43.016Z,2258.00
2023-03-06T09:54:43.992Z,2253.00
2023-03-06T09:55:43.145Z,2245.00
2023-03-06T09:56:43.272Z,2246.00
2023-03-06T09:57:43.284Z,2246.00
2023-03-06T09:58:43.344Z,2242.00
2023-03-06T09:59:43.412Z,2235.00
2023-03-06T10:00:43.476Z,2234.00
2023-03-06T10:01:43.554Z,2234.00
2023-03-06T10:02:43.715Z,2239.00
2023-03-06T10:03:43.691Z,2230.00
2023-03-06T10:04:43.801Z,2226.00
2023-03-06T10:05:43.816Z,2220.00
2023-03-06T10:06:43.952Z,2225.00
2023-03-06T10:07:43.980Z,2220.00
2023-03-06T10:08:44.030Z,2228.00
2023-03-06T10:09:44.101Z,2226.00
2023-03-06T10:10:45.007Z,2217.00
2023-03-06T10:11:44.234Z,2224.00
2023-03-06T10:12:44.310Z,2230.00
2023-03-06T10:13:44.373Z,2226.00
2023-03-06T10:14:46.496Z,2223.00
2023-03-06T10:15:44.461Z,2219.00
2023-03-06T10:16:44.432Z,2212.00
2023-03-06T10:17:44.454Z,2228.00
2023-03-06T10:18:44.438Z,2280.00
2023-03-06T10:19:44.432Z,2291.00
2023-03-06T10:20:44.440Z,2265.00
2023-03-06T10:21:44.557Z,2260.00
2023-03-06T10:22:48.043Z,2277.00
2023-03-06T10:23:45.448Z,2308.00
2023-03-06T10:24:44.421Z,2344.00
2023-03-06T10:25:44.433Z,2424.00
2023-03-06T10:26:44.514Z,2484.00
2023-03-06T10:27:44.443Z,2513.00
2023-03-06T10:28:44.595Z,2534.00
2023-03-06T10:29:56.375Z,2543.00
2023-03-06T10:30:45.416Z,2621.00
2023-03-06T10:31:44.432Z,2656.00
2023-03-06T10:32:48.869Z,2693.00
2023-03-06T10:33:45.425Z,2707.00
2023-03-06T10:34:44.327Z,2726.00
2023-03-06T10:35:44.356Z,2761.00
2023-03-06T10:36:45.007Z,2787.00
2023-03-06T10:37:44.309Z,2820.00
2023-03-06T10:38:44.373Z,2862.00
2023-03-06T10:39:44.300Z,2876.00
2023-03-06T10:40:44.296Z,2911.00
2023-03-06T10:41:45.343Z,2955.00
2023-03-06T10:42:44.267Z,2997.00
2023-03-06T10:43:44.259Z,3014.00
2023-03-06T10:44:44.240Z,3023.00
2023-03-06T10:45:49.319Z,3054.00
2023-03-06T10:47:44.199Z,3116.00
2023-03-06T10:53:44.116Z,3270.00
2023-03-06T10:54:44.098Z,3289.00
2023-03-06T10:55:44.118Z,3375.00
2023-03-06T10:56:44.161Z,3388.00
2023-03-06T10:57:44.201Z,3402.00
2023-03-06T10:58:44.259Z,3415.00
2023-03-06T10:59:44.294Z,3440.00
2023-03-06T11:00:44.340Z,3460.00
2023-03-06T11:01:44.472Z,3507.00
2023-03-06T11:02:44.531Z,3544.00
2023-03-06T11:03:44.488Z,3581.00
2023-03-06T11:04:44.595Z,3634.00
2023-03-06T11:05:44.604Z,3686.00
2023-03-06T11:07:44.697Z,3713.00
2023-03-06T11:08:44.757Z,3793.00
2023-03-06T11:09:44.810Z,3805.00
2023-03-06T11:10:44.868Z,3851.00
2023-03-06T11:11:45.028Z,3875.00
2023-03-06T11:12:44.946Z,3957.00
2023-03-06T11:13:45.010Z,3910.00
2023-03-06T11:14:45.049Z,3851.00
2023-03-06T11:15:45.146Z,3833.00
2023-03-06T11:16:45.116Z,3818.00
2023-03-06T11:17:45.160Z,3797.00
2023-03-06T11:18:45.230Z,3788.00
2023-03-06T11:19:45.235Z,3766.00
2023-03-06T11:20:51.862Z,3757.00
2023-03-06T11:21:46.277Z,3752.00
2023-03-06T11:22:45.191Z,3739.00
2023-03-06T11:23:45.181Z,3731.00
2023-03-06T11:24:45.144Z,3708.00
2023-03-06T11:25:45.174Z,3695.00
2023-03-06T11:26:45.242Z,3673.00
2023-03-06T11:27:46.167Z,3674.00
2023-03-06T11:28:45.234Z,3659.00
2023-03-06T11:29:45.114Z,3678.00
2023-03-06T11:30:45.118Z,3708.00
2023-03-06T11:31:45.158Z,3733.00
2023-03-06T11:32:45.116Z,3718.00
2023-03-06T11:33:45.110Z,3715.00
2023-03-06T11:34:45.141Z,3715.00
2023-03-06T11:35:45.131Z,3720.00
2023-03-06T11:36:45.115Z,3718.00
2023-03-06T11:37:45.137Z,3710.00
2023-03-06T11:38:45.144Z,3704.00
2023-03-06T11:39:45.208Z,3699.00
2023-03-06T11:40:45.202Z,3701.00
2023-03-06T11:41:45.267Z,3685.00
2023-03-06T11:42:45.283Z,3688.00
2023-03-06T11:43:45.354Z,3685.00
2023-03-06T11:44:45.400Z,3677.00
2023-03-06T11:45:45.439Z,3666.00
2023-03-06T11:46:45.551Z,3667.00
2023-03-06T11:47:45.566Z,3666.00
2023-03-06T11:48:45.631Z,3659.00
2023-03-06T11:49:45.694Z,3655.00
2023-03-06T11:50:46.525Z,3651.00
2023-03-06T11:51:45.829Z,3647.00
2023-03-06T11:52:45.888Z,3635.00
2023-03-06T11:53:45.970Z,3623.00
2023-03-06T11:54:46.022Z,3612.00
2023-03-06T11:55:46.102Z,3616.00
2023-03-06T11:56:46.167Z,3608.00
2023-03-06T11:57:46.240Z,3607.00
2023-03-06T11:58:46.323Z,3602.00
2023-03-06T11:59:46.396Z,3597.00
2023-03-06T12:00:46.459Z,3592.00
2023-03-06T12:01:46.588Z,3586.00
2023-03-06T12:02:46.606Z,3576.00
2023-03-06T12:03:46.698Z,3565.00
2023-03-06T12:04:46.790Z,3559.00
2023-03-06T12:05:46.924Z,3557.00
2023-03-06T12:06:46.983Z,3555.00
2023-03-06T12:07:47.024Z,3547.00
2023-03-06T12:08:47.089Z,3538.00
2023-03-06T12:09:47.165Z,3536.00
2023-03-06T12:10:51.539Z,3542.00
2023-03-06T12:11:48.200Z,3533.00
2023-03-06T12:12:47.192Z,3533.00
2023-03-06T12:13:47.229Z,3531.00
2023-03-06T12:14:47.302Z,3524.00
2023-03-06T12:15:47.265Z,3520.00
2023-03-06T12:16:47.267Z,3508.00
2023-03-06T12:17:47.407Z,3504.00
2023-03-06T12:18:47.392Z,3495.00
2023-03-06T12:19:47.346Z,3485.00
2023-03-06T12:20:47.267Z,3475.00
2023-03-06T12:21:47.366Z,3471.00
2023-03-06T12:22:57.975Z,3480.00
2023-03-06T12:23:48.387Z,3470.00
2023-03-06T12:24:47.396Z,3470.00
2023-03-06T12:25:47.396Z,3467.00
2023-03-06T12:26:47.421Z,3464.00
2023-03-06T12:27:47.543Z,3461.00
2023-03-06T12:28:47.445Z,3456.00
2023-03-06T12:29:47.432Z,3444.00
2023-03-06T12:30:47.439Z,3441.00
2023-03-06T12:31:47.540Z,3437.00
2023-03-06T12:32:47.535Z,3443.00
2023-03-06T12:33:47.471Z,3437.00
2023-03-06T12:34:47.513Z,3437.00
2023-03-06T12:35:47.634Z,3435.00
2023-03-06T12:36:47.607Z,3434.00
2023-03-06T12:37:47.640Z,3425.00
2023-03-06T12:38:47.649Z,3422.00
2023-03-06T12:39:47.654Z,3420.00
2023-03-06T12:40:47.698Z,3415.00
2023-03-06T12:41:47.764Z,3407.00
2023-03-06T12:42:47.816Z,3403.00
2023-03-06T12:43:47.880Z,3400.00
2023-03-06T12:44:47.926Z,3395.00
2023-03-06T12:45:48.040Z,3380.00
2023-03-06T12:46:48.038Z,3374.00
2023-03-06T12:47:48.098Z,3379.00
2023-03-06T12:48:48.156Z,3364.00
2023-03-06T12:49:48.517Z,3370.00
2023-03-06T12:50:48.267Z,3365.00
2023-03-06T12:51:48.324Z,3356.00
2023-03-06T12:52:48.451Z,3360.00
2023-03-06T12:53:48.501Z,3361.00
2023-03-06T12:54:48.538Z,3359.00
2023-03-06T12:55:48.600Z,3337.00
2023-03-06T12:56:48.656Z,3344.00
2023-03-06T12:57:48.660Z,3343.00
2023-03-06T12:58:48.700Z,3341.00
2023-03-06T12:59:48.736Z,3334.00
2023-03-06T13:00:52.582Z,3332.00
2023-03-06T13:01:49.853Z,3331.00
2023-03-06T13:02:48.960Z,3322.00
2023-03-06T13:03:48.879Z,3319.00
2023-03-06T13:04:48.824Z,3317.00
2023-03-06T13:05:48.838Z,3311.00
2023-03-06T13:06:50.915Z,3311.00
2023-03-06T13:07:48.875Z,3311.00
2023-03-06T13:08:48.930Z,3300.00
2023-03-06T13:09:48.968Z,3294.00
2023-03-06T13:10:49.031Z,3292.00
2023-03-06T13:11:49.060Z,3292.00
2023-03-06T13:12:50.055Z,3291.00
2023-03-06T13:13:49.140Z,3288.00
2023-03-06T13:14:54.612Z,3287.00
2023-03-06T13:15:50.201Z,3287.00
2023-03-06T13:16:49.285Z,3296.00
2023-03-06T13:17:49.250Z,3301.00
2023-03-06T13:18:49.225Z,3297.00
2023-03-06T13:19:49.291Z,3292.00
2023-03-06T13:20:49.286Z,3277.00
2023-03-06T13:21:49.249Z,3277.00
2023-03-06T13:22:49.263Z,3273.00
2023-03-06T13:23:49.282Z,3271.00
2023-03-06T13:24:50.832Z,3264.00
2023-03-06T13:25:49.342Z,3255.00
2023-03-06T13:26:49.294Z,3254.00
2023-03-06T13:27:49.315Z,3254.00
2023-03-06T13:28:49.318Z,3250.00
2023-03-06T13:29:49.317Z,3244.00
2023-03-06T13:30:51.375Z,3241.00
2023-03-06T13:31:50.581Z,3229.00
2023-03-06T13:32:49.652Z,3223.00
2023-03-06T13:33:49.737Z,3219.00
2023-03-06T13:34:49.806Z,3215.00
2023-03-06T13:35:49.980Z,3214.00
2023-03-06T13:36:49.959Z,3216.00
2023-03-06T13:37:49.904Z,3212.00
2023-03-06T13:38:49.927Z,3203.00
2023-03-06T13:39:50.556Z,3202.00
2023-03-06T13:40:49.997Z,3180.00
2023-03-06T13:41:49.974Z,3186.00
2023-03-06T13:42:49.993Z,3187.00
2023-03-06T13:43:50.018Z,3177.00
2023-03-06T13:44:50.011Z,3170.00
2023-03-06T13:45:50.147Z,3167.00
2023-03-06T13:46:50.078Z,3152.00
2023-03-06T13:48:15.541Z,3150.00
2023-03-06T13:48:51.979Z,3147.00
2023-03-06T13:49:50.097Z,3141.00
2023-03-06T13:50:50.099Z,3136.00
2023-03-06T13:51:50.113Z,3135.00
2023-03-06T13:52:50.125Z,3132.00
2023-03-06T13:53:50.148Z,3132.00
2023-03-06T13:54:50.125Z,3130.00
2023-03-06T13:55:50.134Z,3129.00
2023-03-06T13:56:50.125Z,3127.00
2023-03-06T13:57:50.144Z,3125.00
2023-03-06T13:58:50.175Z,3121.00
2023-03-06T13:59:54.406Z,3121.00
2023-03-06T14:00:51.175Z,3125.00
2023-03-06T14:01:50.224Z,3121.00
2023-03-06T14:02:50.195Z,3113.00
2023-03-06T14:03:50.176Z,3105.00
2023-03-06T14:04:50.161Z,3105.00
2023-03-06T14:05:50.182Z,3097.00
2023-03-06T14:06:50.182Z,3093.00
2023-03-06T14:07:50.181Z,3092.00
2023-03-06T14:08:50.270Z,3092.00
2023-03-06T14:09:50.192Z,3084.00
2023-03-06T14:10:50.207Z,3071.00
2023-03-06T14:11:50.258Z,3065.00
2023-03-06T14:12:50.232Z,3061.00
2023-03-06T14:13:50.210Z,3056.00
2023-03-06T14:14:50.254Z,3056.00
2023-03-06T15:25:52.732Z,2889.00
2023-03-06T15:26:53.595Z,2880.00
2023-03-06T15:27:53.585Z,2873.00
2023-03-06T15:28:59.796Z,2874.00
2023-03-06T15:29:53.786Z,2867.00
2023-03-06T15:30:52.799Z,2872.00
2023-03-06T15:31:52.808Z,2870.00
2023-03-06T15:32:52.798Z,2863.00
2023-03-06T15:33:52.829Z,2863.00
2023-03-06T15:34:52.844Z,2857.00
2023-03-06T15:35:52.854Z,2851.00
2023-03-06T15:36:52.845Z,2843.00
2023-03-06T15:37:52.870Z,2846.00
2023-03-06T15:38:52.856Z,2838.00
2023-03-06T15:39:52.864Z,2835.00
2023-03-06T15:40:52.886Z,2835.00
2023-03-06T15:41:52.877Z,2824.00
2023-03-06T15:42:52.901Z,2820.00
2023-03-06T15:43:53.590Z,2823.00
2023-03-06T15:44:53.025Z,2830.00
2023-03-06T15:45:52.998Z,2826.00
2023-03-06T15:46:59.228Z,2819.00
2023-03-06T15:47:53.937Z,2823.00
2023-03-06T15:48:52.951Z,2811.00
2023-03-06T15:49:53.038Z,2798.00
2023-03-06T15:50:53.586Z,2801.00
2023-03-06T15:51:52.989Z,2807.00
2023-03-06T15:52:53.001Z,2807.00
2023-03-06T15:53:54.981Z,2809.00
2023-03-06T15:54:53.145Z,2810.00
2023-03-06T15:55:53.036Z,2803.00
2023-03-06T15:56:53.033Z,2799.00
2023-03-06T15:57:53.117Z,2799.00
2023-03-06T15:58:53.054Z,2796.00
2023-03-06T15:59:53.599Z,2786.00
2023-03-06T16:00:53.172Z,2778.00
2023-03-06T16:01:53.095Z,2779.00
2023-03-06T16:02:53.117Z,2772.00
2023-03-06T16:03:53.248Z,2776.00
2023-03-06T16:04:53.349Z,2777.00
2023-03-06T16:05:53.289Z,2779.00
2023-03-06T16:06:53.328Z,2775.00
2023-03-06T16:07:53.427Z,2770.00
2023-03-06T16:08:53.424Z,2764.00
2023-03-06T16:09:53.490Z,2768.00
2023-03-06T16:10:53.555Z,2770.00
2023-03-06T16:11:53.596Z,2769.00
2023-03-06T16:12:53.653Z,2764.00
2023-03-06T16:13:53.709Z,2759.00
2023-03-06T16:14:53.765Z,2762.00
2023-03-06T16:15:53.830Z,2764.00
2023-03-06T16:16:54.005Z,2761.00
2023-03-06T16:17:53.935Z,2761.00
2023-03-06T16:18:54.010Z,2765.00
2023-03-06T16:19:54.077Z,2768.00
2023-03-06T16:20:54.172Z,2767.00
2023-03-06T16:21:54.219Z,2764.00
2023-03-06T16:22:54.278Z,2758.00
2023-03-06T16:23:54.610Z,2749.00
2023-03-06T16:24:54.408Z,2752.00
2023-03-06T16:25:54.528Z,2746.00
2023-03-06T16:26:54.535Z,2744.00
2023-03-06T16:27:54.600Z,2747.00
2023-03-06T16:28:54.662Z,2743.00
2023-03-06T16:29:54.724Z,2732.00
2023-03-06T16:30:54.930Z,2592.00
2023-03-06T16:31:54.856Z,2538.00
2023-03-06T16:32:54.923Z,2548.00
2023-03-06T16:33:54.984Z,2544.00
2023-03-06T16:34:55.037Z,2542.00
2023-03-06T16:35:55.130Z,2488.00
2023-03-06T16:36:55.162Z,2618.00
2023-03-06T16:37:55.217Z,2624.00
2023-03-06T16:38:55.331Z,2623.00
2023-03-06T16:39:55.327Z,2620.00
2023-03-06T16:40:55.392Z,2598.00
2023-03-06T16:41:55.460Z,2583.00
2023-03-06T16:42:55.526Z,2563.00
2023-03-06T16:43:55.571Z,2533.00
2023-03-06T16:44:55.637Z,2504.00
2023-03-06T16:45:55.758Z,2494.00
2023-03-06T16:46:55.767Z,2491.00
2023-03-06T16:47:55.895Z,2518.00
2023-03-06T16:48:55.896Z,2532.00
2023-03-06T16:49:55.991Z,2534.00
2023-03-06T16:50:56.010Z,2537.00
2023-03-06T16:51:56.080Z,2535.00
2023-03-06T16:52:56.144Z,2531.00
2023-03-06T16:53:56.229Z,2525.00
2023-03-06T16:54:56.277Z,2520.00
2023-03-06T16:55:56.345Z,2505.00
2023-03-06T16:56:56.413Z,2504.00
2023-03-06T16:57:56.490Z,2502.00
2023-03-06T16:58:56.558Z,2502.00
2023-03-06T16:59:56.629Z,2500.00
2023-03-06T17:00:56.750Z,2499.00
2023-03-06T17:01:56.762Z,2493.00
2023-03-06T17:02:56.819Z,2488.00
2023-03-06T17:03:56.885Z,2487.00
2023-03-06T17:04:56.954Z,2489.00
2023-03-06T17:05:57.035Z,2491.00
2023-03-06T17:06:57.093Z,2486.00
2023-03-06T17:07:57.152Z,2482.00
2023-03-06T17:08:57.217Z,2481.00
2023-03-06T17:09:57.285Z,2479.00
2023-03-06T17:10:57.357Z,2480.00
2023-03-06T18:31:03.306Z,2392.00
2023-03-06T18:32:03.448Z,2390.00
2023-03-06T18:33:03.465Z,2388.00
2023-03-06T18:34:03.638Z,2379.00
2023-03-06T18:35:03.620Z,2383.00
2023-03-06T18:36:04.631Z,2385.00
2023-03-06T18:37:03.767Z,2390.00
2023-03-06T18:38:03.852Z,2385.00
2023-03-06T18:39:04.022Z,2382.00
2023-03-06T18:40:04.063Z,2387.00
2023-03-06T18:41:04.087Z,2392.00
2023-03-06T18:42:05.131Z,2386.00
2023-03-06T18:43:04.251Z,2380.00
2023-03-06T18:44:04.339Z,2380.00
2023-03-06T18:45:04.417Z,2370.00
2023-03-06T18:46:04.515Z,2366.00
2023-03-06T18:47:04.569Z,2365.00
2023-03-06T18:48:04.649Z,2366.00
2023-03-06T18:49:04.723Z,2359.00
2023-03-06T18:50:04.817Z,2357.00
2023-03-06T18:51:04.887Z,2355.00
2023-03-06T18:52:04.966Z,2357.00
2023-03-06T18:53:05.067Z,2360.00
2023-03-06T18:54:05.141Z,2359.00
2023-03-06T18:55:05.209Z,2354.00
2023-03-06T18:56:05.287Z,2346.00
2023-03-06T18:57:05.365Z,2344.00
2023-03-06T18:58:05.450Z,2345.00
2023-03-06T18:59:05.563Z,2340.00
2023-03-06T19:00:05.619Z,2339.00
2023-03-06T19:01:05.711Z,2340.00
2023-03-06T19:02:05.791Z,2343.00
2023-03-06T19:03:05.861Z,2342.00
2023-03-06T19:04:05.961Z,2338.00
2023-03-06T19:05:06.019Z,2333.00
2023-03-06T19:06:06.109Z,2336.00
2023-03-06T19:07:07.144Z,2339.00
2023-03-06T19:08:06.281Z,2337.00
2023-03-06T19:09:06.376Z,2331.00
2023-03-06T19:10:06.452Z,2332.00
2023-03-06T19:11:06.532Z,2334.00
2023-03-06T19:12:06.610Z,2334.00
2023-03-06T19:13:06.700Z,2338.00
2023-03-06T19:14:06.782Z,2341.00
2023-03-06T19:15:06.846Z,2331.00
2023-03-06T19:16:07.680Z,2325.00
2023-03-06T20:34:13.329Z,2230.00
2023-03-06T20:35:13.408Z,2227.00
2023-03-06T20:36:13.468Z,2230.00
2023-03-06T20:37:13.531Z,2216.00
2023-03-06T20:38:13.607Z,2217.00
2023-03-06T20:39:13.699Z,2220.00
2023-03-06T20:40:13.834Z,2217.00
2023-03-06T20:41:14.661Z,2225.00
2023-03-06T20:42:13.956Z,2225.00
2023-03-06T20:43:14.044Z,2220.00
2023-03-06T20:44:14.137Z,2216.00
2023-03-06T20:45:14.238Z,2214.00
2023-03-06T20:46:14.327Z,2210.00